createdAt,value
2023-03-29T00:02:33.488Z,3.90
2023-03-29T00:05:02.089Z,3.86
2023-03-29T00:07:30.088Z,3.78
2023-03-29T00:09:56.705Z,3.71
2023-03-29T00:12:23.130Z,3.73
2023-03-29T00:14:49.560Z,3.67
2023-03-29T00:17:16.404Z,3.60
2023-03-29T00:19:44.524Z,3.61
2023-03-29T00:22:11.492Z,3.66
2023-03-29T00:24:37.976Z,3.85
2023-03-29T00:27:04.789Z,3.87
2023-03-29T00:29:31.346Z,3.88
2023-03-29T00:31:58.117Z,3.98
2023-03-29T00:34:26.490Z,4.02
2023-03-29T00:36:53.137Z,4.07
2023-03-29T00:39:20.536Z,4.09
2023-03-29T00:41:48.705Z,3.97
2023-03-29T00:44:52.714Z,3.96
2023-03-29T00:47:26.475Z,4.18
2023-03-29T00:49:53.916Z,4.06
2023-03-29T00:52:21.772Z,3.99
2023-03-29T00:54:52.981Z,4.01
2023-03-29T00:57:20.897Z,3.91
2023-03-29T00:59:49.627Z,4.00
2023-03-29T01:02:22.088Z,4.03
2023-03-29T01:04:57.878Z,4.14
2023-03-29T01:07:30.739Z,3.99
2023-03-29T01:10:29.474Z,3.88
2023-03-29T01:13:06.367Z,4.00
2023-03-29T01:15:33.408Z,4.06
2023-03-29T01:18:01.828Z,4.04
2023-03-29T01:20:46.032Z,3.97
2023-03-29T01:23:22.256Z,3.89
2023-03-29T01:26:10.024Z,4.12
2023-03-29T01:28:45.505Z,3.84
2023-03-29T01:31:19.684Z,4.09
2023-03-29T01:34:00.975Z,3.94
2023-03-29T01:36:35.004Z,3.80
2023-03-29T01:39:06.950Z,3.87
2023-03-29T01:41:52.243Z,3.90
2023-03-29T01:44:23.970Z,4.02
2023-03-29T01:46:53.212Z,4.16
2023-03-29T01:49:32.315Z,4.18
2023-03-29T01:52:05.363Z,4.25
2023-03-29T01:54:38.133Z,4.23
2023-03-29T01:57:06.887Z,4.26
2023-03-29T01:59:36.299Z,4.15
2023-03-29T02:02:08.128Z,4.19
2023-03-29T02:04:40.364Z,4.18
2023-03-29T02:07:09.012Z,3.94
2023-03-29T02:09:37.782Z,3.89
2023-03-29T02:12:07.081Z,3.89
2023-03-29T02:14:33.586Z,4.18
2023-03-29T02:17:18.213Z,4.10
2023-03-29T02:19:51.550Z,4.01
2023-03-29T02:22:24.326Z,3.99
2023-03-29T02:24:54.799Z,4.09
2023-03-29T02:27:21.766Z,4.09
2023-03-29T02:29:48.325Z,3.99
2023-03-29T02:32:42.260Z,4.06
2023-03-29T02:35:14.506Z,4.03
2023-03-29T02:37:44.442Z,4.10
2023-03-29T02:40:13.089Z,3.99
2023-03-29T02:42:42.488Z,3.98
2023-03-29T02:45:12.761Z,3.97
2023-03-29T02:47:44.336Z,3.76
2023-03-29T02:50:11.943Z,3.82
2023-03-29T02:52:43.008Z,3.85
2023-03-29T02:55:15.770Z,3.81
2023-03-29T02:57:43.812Z,3.82
2023-03-29T03:00:11.803Z,3.76
2023-03-29T03:02:38.324Z,3.56
2023-03-29T03:05:06.656Z,3.47
2023-03-29T03:07:33.752Z,3.53
2023-03-29T03:10:00.365Z,3.47
2023-03-29T03:12:27.098Z,3.46
2023-03-29T03:14:53.594Z,3.44
2023-03-29T03:17:20.186Z,3.38
2023-03-29T03:19:47.454Z,3.46
2023-03-29T03:22:14.848Z,3.44
2023-03-29T03:24:42.652Z,3.55
2023-03-29T03:27:10.790Z,3.72
2023-03-29T03:29:38.553Z,3.75
2023-03-29T03:32:43.579Z,3.83
2023-03-29T03:35:49.213Z,3.90
2023-03-29T03:38:17.018Z,3.93
2023-03-29T03:40:53.656Z,3.93
2023-03-29T03:43:20.110Z,3.96
2023-03-29T03:45:47.958Z,4.12
2023-03-29T03:48:17.512Z,4.24
2023-03-29T03:50:55.215Z,4.16
2023-03-29T03:53:23.522Z,4.13
2023-03-29T03:56:20.451Z,4.05
2023-03-29T03:59:07.155Z,4.01
2023-03-29T04:01:50.641Z,4.08
2023-03-29T04:04:20.594Z,4.29
2023-03-29T04:07:02.652Z,4.33
2023-03-29T04:09:48.811Z,4.26
2023-03-29T04:12:33.899Z,4.23
2023-03-29T04:15:01.198Z,4.31
2023-03-29T04:17:28.978Z,4.34
2023-03-29T04:19:58.259Z,4.31
2023-03-29T04:22:27.220Z,4.31
2023-03-29T04:24:53.873Z,4.33
2023-03-29T04:27:38.927Z,4.48
2023-03-29T04:30:13.415Z,4.44
2023-03-29T04:33:06.094Z,4.40
2023-03-29T04:35:34.254Z,4.40
2023-03-29T04:38:00.987Z,4.46
2023-03-29T04:40:28.985Z,4.34
2023-03-29T04:43:18.363Z,4.31
2023-03-29T04:45:55.154Z,4.34
2023-03-29T04:48:47.213Z,4.39
2023-03-29T04:51:14.111Z,4.48
2023-03-29T04:53:41.076Z,4.57
2023-03-29T04:56:08.095Z,4.68
2023-03-29T04:59:00.545Z,4.76
2023-03-29T05:01:27.043Z,4.79
2023-03-29T05:03:57.468Z,4.65
2023-03-29T05:06:29.272Z,4.64
2023-03-29T05:08:56.118Z,4.74
2023-03-29T05:11:26.954Z,4.77
2023-03-29T05:13:55.795Z,4.75
2023-03-29T05:16:24.614Z,4.50
2023-03-29T05:18:55.281Z,4.34
2023-03-29T05:21:22.310Z,4.29
2023-03-29T05:23:49.461Z,4.31
2023-03-29T05:26:16.156Z,4.39
2023-03-29T05:28:50.902Z,4.28
2023-03-29T05:31:17.558Z,4.32
2023-03-29T05:33:48.319Z,4.36
2023-03-29T05:36:16.975Z,4.52
2023-03-29T05:38:49.828Z,4.79
2023-03-29T05:41:20.654Z,4.85
2023-03-29T05:43:47.056Z,4.87
2023-03-29T05:46:13.717Z,4.93
2023-03-29T05:48:47.471Z,5.04
2023-03-29T05:51:15.017Z,5.29
2023-03-29T05:53:41.643Z,5.32
2023-03-29T05:56:08.780Z,5.46
2023-03-29T05:58:36.249Z,5.47
2023-03-29T06:01:05.179Z,5.42
2023-03-29T06:03:49.506Z,5.43
2023-03-29T06:06:18.414Z,5.51
2023-03-29T06:08:45.250Z,5.53
2023-03-29T06:11:24.149Z,5.48
2023-03-29T06:14:16.627Z,5.58
2023-03-29T06:16:50.082Z,5.77
2023-03-29T06:19:17.363Z,5.95
2023-03-29T06:21:43.916Z,5.95
2023-03-29T06:24:13.996Z,6.07
2023-03-29T06:26:46.406Z,6.30
2023-03-29T06:29:12.900Z,6.32
2023-03-29T06:31:40.934Z,6.27
2023-03-29T06:34:09.591Z,6.37
2023-03-29T06:36:58.696Z,6.48
2023-03-29T06:39:26.895Z,6.57
2023-03-29T06:42:20.162Z,6.68
2023-03-29T06:45:08.683Z,6.65
2023-03-29T06:47:36.698Z,6.63
2023-03-29T06:50:03.496Z,6.72
2023-03-29T06:52:56.244Z,6.70
2023-03-29T06:55:24.481Z,6.73
2023-03-29T06:57:52.647Z,6.76
2023-03-29T07:00:27.665Z,6.88
2023-03-29T07:03:19.962Z,7.02
2023-03-29T07:05:51.885Z,7.01
2023-03-29T07:08:21.393Z,7.08
2023-03-29T07:10:59.304Z,7.20
2023-03-29T07:13:46.153Z,7.25
2023-03-29T07:16:17.464Z,7.39
2023-03-29T07:18:49.921Z,7.48
2023-03-29T07:21:37.746Z,7.44
2023-03-29T07:24:06.590Z,7.53
2023-03-29T07:26:34.611Z,7.46
2023-03-29T07:29:01.249Z,7.51
2023-03-29T07:31:29.520Z,7.61
2023-03-29T07:34:10.863Z,7.93
2023-03-29T07:36:38.862Z,7.88
2023-03-29T07:39:06.859Z,8.02
2023-03-29T07:41:36.039Z,8.00
2023-03-29T07:44:11.734Z,7.83
2023-03-29T07:46:38.683Z,7.81
2023-03-29T07:49:06.777Z,7.98
2023-03-29T07:51:33.252Z,8.14
2023-03-29T07:54:07.747Z,8.23
2023-03-29T07:56:40.309Z,8.25
2023-03-29T07:59:26.007Z,8.39
2023-03-29T08:02:02.916Z,8.53
2023-03-29T08:04:37.393Z,8.53
2023-03-29T08:07:19.867Z,8.95
2023-03-29T08:10:05.611Z,9.12
2023-03-29T08:12:50.499Z,9.09
2023-03-29T08:15:19.714Z,8.83
2023-03-29T08:17:46.343Z,8.83
2023-03-29T08:20:16.232Z,8.89
2023-03-29T08:22:45.773Z,8.77
2023-03-29T08:25:32.883Z,8.81
2023-03-29T08:27:59.402Z,8.88
2023-03-29T08:30:37.390Z,8.97
2023-03-29T08:33:05.209Z,9.00
2023-03-29T08:35:32.101Z,9.21
2023-03-29T08:38:19.900Z,9.31
2023-03-29T08:40:48.708Z,9.27
2023-03-29T08:43:39.566Z,9.32
2023-03-29T08:46:30.893Z,9.34
2023-03-29T08:49:10.689Z,9.36
2023-03-29T08:51:44.192Z,9.36
2023-03-29T08:54:24.384Z,9.42
2023-03-29T08:57:23.512Z,9.77
2023-03-29T08:59:58.361Z,9.82
2023-03-29T09:02:27.724Z,9.93
2023-03-29T09:05:15.114Z,10.08
2023-03-29T09:07:44.952Z,9.91
2023-03-29T09:10:16.833Z,10.13
2023-03-29T09:13:06.336Z,10.14
2023-03-29T09:16:01.353Z,10.24
2023-03-29T09:18:48.358Z,10.47
2023-03-29T09:21:19.487Z,10.83
2023-03-29T09:23:48.958Z,10.61
2023-03-29T09:27:05.125Z,10.54
2023-03-29T09:29:55.489Z,10.74
2023-03-29T09:32:42.908Z,10.92
2023-03-29T09:35:35.680Z,11.19
2023-03-29T09:38:03.876Z,11.28
2023-03-29T09:40:39.829Z,11.55
2023-03-29T09:43:19.129Z,11.90
2023-03-29T09:45:53.053Z,11.93
2023-03-29T09:48:20.704Z,12.04
2023-03-29T09:50:52.959Z,11.70
2023-03-29T09:53:21.528Z,11.86
2023-03-29T09:56:08.379Z,12.11
2023-03-29T09:58:46.740Z,11.81
2023-03-29T10:01:17.522Z,11.84
2023-03-29T10:03:51.405Z,11.71
2023-03-29T10:06:20.242Z,11.90
2023-03-29T10:08:58.714Z,12.09
2023-03-29T10:11:36.936Z,12.32
2023-03-29T10:14:07.235Z,12.26
2023-03-29T10:16:38.001Z,12.42
2023-03-29T10:19:19.283Z,12.27
2023-03-29T10:21:52.770Z,12.60
2023-03-29T10:24:24.507Z,12.93
2023-03-29T10:26:57.939Z,13.03
2023-03-29T10:29:26.067Z,13.27
2023-03-29T10:31:53.270Z,12.88
2023-03-29T10:34:25.140Z,12.84
2023-03-29T10:36:58.825Z,12.67
2023-03-29T10:39:29.183Z,13.08
2023-03-29T10:41:55.932Z,13.34
2023-03-29T10:44:32.866Z,13.21
2023-03-29T10:47:16.735Z,13.04
2023-03-29T10:49:44.499Z,13.11
2023-03-29T10:52:13.032Z,13.04
2023-03-29T10:54:39.486Z,12.94
2023-03-29T10:57:10.329Z,13.03
2023-03-29T10:59:40.260Z,13.27
2023-03-29T11:02:15.815Z,13.38
2023-03-29T11:04:42.307Z,13.61
2023-03-29T11:07:27.831Z,13.73
2023-03-29T11:10:17.678Z,13.62
2023-03-29T11:12:49.493Z,13.78
2023-03-29T11:15:29.389Z,13.92
2023-03-29T11:17:58.722Z,14.38
2023-03-29T11:20:31.044Z,14.55
2023-03-29T11:22:57.328Z,15.03
2023-03-29T11:25:43.959Z,15.05
2023-03-29T11:28:19.363Z,14.97
2023-03-29T11:30:45.986Z,14.66
2023-03-29T11:33:12.363Z,14.57
2023-03-29T11:35:57.538Z,14.53
2023-03-29T11:38:29.960Z,14.57
2023-03-29T11:41:15.624Z,14.79
2023-03-29T11:43:55.041Z,14.98
2023-03-29T11:46:28.392Z,15.11
2023-03-29T11:49:14.803Z,15.30
2023-03-29T11:51:45.858Z,14.98
2023-03-29T11:54:22.664Z,15.04
2023-03-29T11:56:56.085Z,15.17
2023-03-29T11:59:32.805Z,15.19
2023-03-29T12:02:09.378Z,15.10
2023-03-29T12:04:41.813Z,15.09
2023-03-29T12:07:34.578Z,15.19
2023-03-29T12:10:21.260Z,14.87
2023-03-29T12:13:03.238Z,14.75
2023-03-29T12:15:32.812Z,15.05
2023-03-29T12:18:07.086Z,15.08
2023-03-29T12:20:39.823Z,15.30
2023-03-29T12:23:12.717Z,15.34
2023-03-29T12:25:53.016Z,14.98
2023-03-29T12:28:49.400Z,14.70
2023-03-29T12:31:21.592Z,14.54
2023-03-29T12:33:56.881Z,14.83
2023-03-29T12:36:45.235Z,14.80
2023-03-29T12:39:31.322Z,14.73
2023-03-29T12:42:24.176Z,14.69
2023-03-29T12:45:21.426Z,14.50
2023-03-29T12:47:50.878Z,14.64
2023-03-29T12:50:28.360Z,14.41
2023-03-29T12:53:12.931Z,14.34
2023-03-29T12:55:42.371Z,14.28
2023-03-29T12:58:27.598Z,14.11
2023-03-29T13:01:06.157Z,14.21
2023-03-29T13:03:35.611Z,14.28
2023-03-29T13:06:05.059Z,14.21
2023-03-29T13:08:38.118Z,14.16
2023-03-29T13:11:06.477Z,14.13
2023-03-29T13:13:36.654Z,14.15
2023-03-29T13:16:15.690Z,14.14
2023-03-29T13:19:07.530Z,14.26
2023-03-29T13:21:49.179Z,13.95
2023-03-29T13:24:35.671Z,13.93
2023-03-29T13:27:04.786Z,14.21
2023-03-29T13:29:48.053Z,14.36
2023-03-29T13:32:46.378Z,14.21
2023-03-29T13:35:20.260Z,13.89
2023-03-29T13:38:21.480Z,13.95
2023-03-29T13:40:53.974Z,13.58
2023-03-29T13:43:44.534Z,12.91
2023-03-29T13:46:21.197Z,12.21
2023-03-29T13:48:57.907Z,11.87
2023-03-29T13:51:32.927Z,11.76
2023-03-29T13:54:23.180Z,11.84
2023-03-29T13:57:08.764Z,11.89
2023-03-29T13:59:50.418Z,12.08
2023-03-29T14:02:25.397Z,12.06
2023-03-29T14:04:53.370Z,12.26
2023-03-29T14:07:26.092Z,12.60
2023-03-29T14:09:54.994Z,12.68
2023-03-29T14:12:22.525Z,12.73
2023-03-29T14:14:58.817Z,12.88
2023-03-29T14:17:26.892Z,13.05
2023-03-29T14:19:57.572Z,12.91
2023-03-29T14:22:24.223Z,13.20
2023-03-29T14:24:54.731Z,13.48
2023-03-29T14:27:21.961Z,13.55
2023-03-29T14:29:51.203Z,13.78
2023-03-29T14:32:20.460Z,13.90
2023-03-29T14:34:50.769Z,13.90
2023-03-29T14:37:22.701Z,14.10
2023-03-29T14:39:50.088Z,14.33
2023-03-29T14:42:24.084Z,14.17
2023-03-29T14:44:51.050Z,14.34
2023-03-29T14:47:29.526Z,14.78
2023-03-29T14:50:00.531Z,15.04
2023-03-29T14:52:30.267Z,14.98
2023-03-29T14:55:00.041Z,15.09
2023-03-29T14:57:31.959Z,14.55
2023-03-29T15:00:24.552Z,14.60
2023-03-29T15:02:59.188Z,14.58
2023-03-29T15:05:30.247Z,14.85
2023-03-29T15:07:56.785Z,15.28
2023-03-29T15:10:23.621Z,15.35
2023-03-29T15:12:51.074Z,15.67
2023-03-29T15:15:17.949Z,15.36
2023-03-29T15:17:52.115Z,15.54
2023-03-29T15:20:21.249Z,15.82
2023-03-29T15:22:58.774Z,15.65
2023-03-29T15:25:34.631Z,15.08
2023-03-29T15:28:01.785Z,14.91
2023-03-29T15:30:35.811Z,14.93
2023-03-29T15:33:26.055Z,14.87
2023-03-29T15:35:53.725Z,14.76
2023-03-29T15:38:25.429Z,14.94
2023-03-29T15:41:00.802Z,15.13
2023-03-29T15:43:27.509Z,14.73
2023-03-29T15:45:54.025Z,14.50
2023-03-29T15:48:23.636Z,14.30
2023-03-29T15:50:50.148Z,14.30
2023-03-29T15:53:17.123Z,14.21
2023-03-29T15:56:00.096Z,14.26
2023-03-29T15:58:30.546Z,14.33
2023-03-29T16:01:16.053Z,14.19
2023-03-29T16:03:46.999Z,14.21
2023-03-29T16:06:14.504Z,14.27
2023-03-29T16:08:41.773Z,14.38
2023-03-29T16:11:08.236Z,14.33
2023-03-29T16:13:34.876Z,14.40
2023-03-29T16:16:01.758Z,14.61
2023-03-29T16:18:28.499Z,14.77
2023-03-29T16:20:55.010Z,14.91
2023-03-29T16:23:21.515Z,14.99
2023-03-29T16:25:48.094Z,15.04
2023-03-29T16:28:14.533Z,14.99
2023-03-29T16:30:41.238Z,15.01
2023-03-29T16:33:08.546Z,14.94
2023-03-29T16:35:38.069Z,14.96
2023-03-29T16:38:04.759Z,15.02
2023-03-29T16:40:31.601Z,14.97
2023-03-29T16:42:58.114Z,14.91
2023-03-29T16:45:24.574Z,14.82
2023-03-29T16:47:51.358Z,14.79
2023-03-29T16:50:19.678Z,14.44
2023-03-29T16:52:48.287Z,14.33
2023-03-29T16:55:18.782Z,14.20
2023-03-29T16:57:46.755Z,14.12
2023-03-29T17:00:15.789Z,14.00
2023-03-29T17:02:49.429Z,13.90
2023-03-29T17:05:17.512Z,13.87
2023-03-29T17:07:44.739Z,13.86
2023-03-29T17:10:12.409Z,13.73
2023-03-29T17:12:39.655Z,13.65
2023-03-29T17:15:07.808Z,13.59
2023-03-29T17:17:34.771Z,13.53
2023-03-29T17:20:01.312Z,13.53
2023-03-29T17:22:27.756Z,13.38
2023-03-29T17:24:54.320Z,13.32
2023-03-29T17:27:21.175Z,13.24
2023-03-29T17:29:47.922Z,13.10
2023-03-29T17:32:14.477Z,12.92
2023-03-29T17:34:41.592Z,12.82
2023-03-29T17:37:09.210Z,12.53
2023-03-29T17:39:37.541Z,12.41
2023-03-29T17:42:05.531Z,12.07
2023-03-29T17:44:33.167Z,11.94
2023-03-29T17:47:00.495Z,11.99
2023-03-29T17:49:26.977Z,11.97
2023-03-29T17:51:53.379Z,11.64
2023-03-29T17:54:19.854Z,11.38
2023-03-29T17:56:46.369Z,11.32
2023-03-29T17:59:12.840Z,11.19
2023-03-29T18:01:39.592Z,11.17
2023-03-29T18:04:06.268Z,11.05
2023-03-29T18:06:32.823Z,11.05
2023-03-29T18:09:01.388Z,11.09
2023-03-29T18:11:28.394Z,10.92
2023-03-29T18:13:59.165Z,10.81
2023-03-29T18:16:26.050Z,10.84
2023-03-29T18:18:52.715Z,10.96
2023-03-29T18:21:19.168Z,10.94
2023-03-29T18:23:47.114Z,10.93
2023-03-29T18:26:15.522Z,10.80
2023-03-29T18:28:43.794Z,10.76
2023-03-29T18:31:10.463Z,10.63
2023-03-29T18:33:37.024Z,10.72
2023-03-29T18:36:08.446Z,10.86
2023-03-29T18:38:36.489Z,10.74
2023-03-29T18:41:04.099Z,10.56
2023-03-29T18:43:32.396Z,10.70
2023-03-29T18:45:58.967Z,10.61
2023-03-29T18:48:26.042Z,10.62
2023-03-29T18:50:52.563Z,10.54
2023-03-29T18:53:19.487Z,10.55
2023-03-29T18:55:46.001Z,10.47
2023-03-29T18:58:14.103Z,10.31
2023-03-29T19:00:41.872Z,10.27
2023-03-29T19:03:09.102Z,10.28
2023-03-29T19:05:39.629Z,10.38
2023-03-29T19:08:08.842Z,10.24
2023-03-29T19:10:36.733Z,10.39
2023-03-29T19:13:04.381Z,10.32
2023-03-29T19:15:31.400Z,10.31
2023-03-29T19:17:57.956Z,10.24
2023-03-29T19:20:25.460Z,10.18
2023-03-29T19:22:53.413Z,10.15
2023-03-29T19:25:20.190Z,10.23
2023-03-29T19:27:46.653Z,10.27
2023-03-29T19:30:14.284Z,10.16
2023-03-29T19:32:40.938Z,10.01
2023-03-29T19:35:09.477Z,9.98
2023-03-29T19:37:36.185Z,10.01
2023-03-29T19:40:06.204Z,10.15
2023-03-29T19:42:35.986Z,10.08
2023-03-29T19:45:03.902Z,10.08
2023-03-29T19:47:31.045Z,10.07
2023-03-29T19:49:58.555Z,10.04
2023-03-29T19:52:27.728Z,10.14
2023-03-29T19:54:58.494Z,10.21
2023-03-29T19:57:25.311Z,10.23
2023-03-29T19:59:53.840Z,10.30
2023-03-29T20:02:20.450Z,10.35
2023-03-29T20:04:46.995Z,10.41
2023-03-29T20:07:13.631Z,10.54
2023-03-29T20:09:43.294Z,10.48
2023-03-29T20:12:11.621Z,10.57
2023-03-29T20:14:40.133Z,10.64
2023-03-29T20:17:07.152Z,10.72
2023-03-29T20:19:36.415Z,10.78
2023-03-29T20:22:04.356Z,10.87
2023-03-29T20:24:32.532Z,10.98
2023-03-29T20:26:59.255Z,11.12
2023-03-29T20:29:25.848Z,11.09
2023-03-29T20:31:52.431Z,11.24
2023-03-29T20:34:19.043Z,11.34
2023-03-29T20:36:46.704Z,11.29
2023-03-29T20:39:17.009Z,11.32
2023-03-29T20:41:47.385Z,11.24
2023-03-29T20:44:16.638Z,11.28
2023-03-29T20:46:54.251Z,11.31
2023-03-29T20:49:26.219Z,11.23
2023-03-29T20:51:58.435Z,11.27
2023-03-29T20:54:25.873Z,11.22
2023-03-29T20:56:54.401Z,11.10
2023-03-29T20:59:22.653Z,11.24
2023-03-29T21:01:50.109Z,11.46
2023-03-29T21:04:17.642Z,11.68
2023-03-29T21:06:45.601Z,11.72
2023-03-29T21:09:13.567Z,11.68
2023-03-29T21:11:40.185Z,11.81
2023-03-29T21:14:06.793Z,11.79
2023-03-29T21:16:33.248Z,11.90
2023-03-29T21:18:59.734Z,11.98
2023-03-29T21:21:26.249Z,12.13
2023-03-29T21:23:52.886Z,12.11
2023-03-29T21:26:19.288Z,12.09
2023-03-29T21:28:45.910Z,12.12
2023-03-29T21:31:12.429Z,12.05
2023-03-29T21:33:39.117Z,12.08
2023-03-29T21:36:06.133Z,12.02
2023-03-29T21:38:32.682Z,12.00
2023-03-29T21:41:00.244Z,12.15
2023-03-29T21:43:26.793Z,12.15
2023-03-29T21:45:53.232Z,11.99
2023-03-29T21:48:19.701Z,11.93
2023-03-29T21:50:50.085Z,11.88
2023-03-29T21:53:16.788Z,11.96
2023-03-29T21:55:43.227Z,11.97
2023-03-29T21:58:09.821Z,12.00
2023-03-29T22:00:36.317Z,11.92
2023-03-29T22:03:02.932Z,11.95
2023-03-29T22:05:29.398Z,11.94
2023-03-29T22:07:58.564Z,11.94
2023-03-29T22:10:25.587Z,12.02
2023-03-29T22:12:52.559Z,12.06
2023-03-29T22:15:20.611Z,12.01
2023-03-29T22:17:48.043Z,12.01
2023-03-29T22:20:14.835Z,12.07
2023-03-29T22:22:46.803Z,12.01
2023-03-29T22:25:13.414Z,12.09
2023-03-29T22:27:39.920Z,12.10
2023-03-29T22:30:07.060Z,12.07
2023-03-29T22:32:34.666Z,12.18
2023-03-29T22:35:01.164Z,12.19
2023-03-29T22:37:27.819Z,12.27
2023-03-29T22:39:54.273Z,12.52
2023-03-29T22:42:20.992Z,12.61
2023-03-29T22:44:47.484Z,12.83
2023-03-29T22:47:14.292Z,12.96
2023-03-29T22:49:41.288Z,13.09
2023-03-29T22:52:07.965Z,13.30
2023-03-29T22:54:34.407Z,13.38
2023-03-29T22:57:00.863Z,13.63
2023-03-29T22:59:27.456Z,13.62
2023-03-29T23:01:54.066Z,13.69
2023-03-29T23:04:20.653Z,13.59
2023-03-29T23:06:47.091Z,13.58
2023-03-29T23:09:15.848Z,13.68
2023-03-29T23:11:42.876Z,13.66
2023-03-29T23:14:09.539Z,13.65
2023-03-29T23:16:36.919Z,13.59
2023-03-29T23:19:03.461Z,13.57
2023-03-29T23:21:29.993Z,13.58
2023-03-29T23:23:56.464Z,13.60
2023-03-29T23:26:23.111Z,13.69
2023-03-29T23:28:51.473Z,13.76
2023-03-29T23:31:18.436Z,13.87
2023-03-29T23:33:45.476Z,13.86
2023-03-29T23:36:14.922Z,13.82
2023-03-29T23:38:43.672Z,13.69
2023-03-29T23:41:12.565Z,13.60
2023-03-29T23:43:41.718Z,13.70
2023-03-29T23:46:10.782Z,13.75
2023-03-29T23:48:38.496Z,13.76
2023-03-29T23:51:07.740Z,13.79
2023-03-29T23:53:34.208Z,13.70
2023-03-29T23:56:03.312Z,13.60
2023-03-29T23:58:35.945Z,13.53
